CMA CGM Hugo — DCTA2 — position and weather

sailwx.info

Track history (hours):
 
Tides and Currents Weather Stations Pressure Air Temp Water Temp Dewpoint Dewpoint Depression Visibility Wind Speed Wind Dir Waves Ship Positions

CMA CGM Hugo

Last reported at 2015-Mar-29 06:00 UTC. Time now 2015-Mar-29 19:40 UTC.
Position S 07°06' E 082°30'.

Length 334.1 m; beam 42.8 m; draft 14.5 m.

Type: Ship. MMSI: 211831000.

Wind from 230 at 6 knots

Barometer 1012.0 mb
Air temperature 29.5 ° C
Visibility: greater than 10.8 NM
Water temperature 29.0 ° C

Date/timePositionNaut miles runAvg speedWind from/ knotsBaromVisibWave heightAir tempDewpointWater temp
2015-Mar-29 06:00S 07°06' E 082°30'39416.4 230 / 61012.010.8 29.5 29.0
2015-Mar-28 06:00S 02°18' E 087°00'7218.1 270 / 81012.210.8 29.0 29.0
2015-Mar-28 02:00S 01°24' E 087°48'   230 / 91012.510.8 28.5 29.0
2015-Mar-25 06:21N 02°05' E 102°07'1418.3
2015-Mar-25 05:33N 01°56' E 102°18'1717.4
2015-Mar-25 04:33N 01°48' E 102°33'1717.2
2015-Mar-25 03:33N 01°41' E 102°49'6015.0
2015-Mar-24 23:33N 01°15' E 103°43'4 3.4
2015-Mar-24 22:28N 01°17' E 103°46'0 0.0
2015-Mar-24 21:33N 01°17' E 103°46'0 0.0
2015-Mar-24 20:33N 01°17' E 103°46'0 0.0
2015-Mar-24 19:32N 01°17' E 103°46'0 0.0
2015-Mar-24 18:32N 01°17' E 103°46'0 0.0
2015-Mar-24 17:31N 01°17' E 103°46'0 0.0
2015-Mar-24 16:31N 01°17' E 103°46'0 0.0
2015-Mar-24 15:31N 01°17' E 103°46'0 0.0
2015-Mar-24 14:33N 01°17' E 103°46'0 0.0
2015-Mar-24 13:33N 01°17' E 103°46'0 0.0
2015-Mar-24 12:32N 01°17' E 103°46'0 0.0
2015-Mar-24 11:29N 01°17' E 103°46'0 0.0
2015-Mar-24 10:28N 01°17' E 103°46'0 0.0
2015-Mar-24 09:28N 01°17' E 103°46'0 0.0
2015-Mar-24 08:31N 01°17' E 103°46'1 0.7
2015-Mar-24 07:33N 01°17' E 103°45'6 5.8
2015-Mar-24 06:33N 01°13' E 103°49'7 7.1
2015-Mar-24 05:33N 01°14' E 103°56'1110.7
2015-Mar-24 04:33N 01°16' E 104°06'1312.8
2015-Mar-24 03:32N 01°18' E 104°19'  
2015-Mar-21 02:29N 22°05' E 114°21'1313.5
2015-Mar-21 01:33N 22°12' E 114°10'6 6.6
2015-Mar-21 00:33N 22°17' E 114°06'3 3.0
2015-Mar-20 23:33N 22°20' E 114°08'0 0.0
2015-Mar-20 22:31N 22°20' E 114°08'0 0.0
2015-Mar-20 21:33N 22°20' E 114°08'0 0.0
2015-Mar-20 20:33N 22°20' E 114°08'0 0.0
2015-Mar-20 19:32N 22°20' E 114°08'0 0.0
2015-Mar-20 18:32N 22°20' E 114°08'0 0.0
2015-Mar-20 17:28N 22°20' E 114°08'0 0.0
2015-Mar-20 16:28N 22°20' E 114°08'0 0.0
2015-Mar-20 15:31N 22°20' E 114°08'0 0.0
2015-Mar-20 14:33N 22°20' E 114°08'0 0.0
2015-Mar-20 13:30N 22°20' E 114°08'0 0.0
2015-Mar-20 12:20N 22°20' E 114°08'0 0.0
2015-Mar-20 11:29N 22°20' E 114°08'0 0.0
2015-Mar-20 10:04N 22°20' E 114°08'0 0.0
2015-Mar-20 09:19N 22°20' E 114°08'0 0.0
2015-Mar-20 08:27N 22°20' E 114°08'0 0.0
2015-Mar-20 07:33N 22°20' E 114°08'3 2.6
2015-Mar-20 06:33N 22°18' E 114°06'10 9.4
2015-Mar-20 05:31N 22°10' E 114°13'1211.1
2015-Mar-20 04:29N 22°12' E 114°25'  
Track history (hours):
 
Tides and Currents Weather Stations Pressure Air Temp Water Temp Dewpoint Dewpoint Depression Visibility Wind Speed Wind Dir Waves Ship Positions

CMA CGM Hugo

Last reported at 2015-Mar-29 06:00 UTC. Time now 2015-Mar-29 19:40 UTC.
Position S 07°06' E 082°30'.

Length 334.1 m; beam 42.8 m; draft 14.5 m.

Type: Ship. MMSI: 211831000.

Wind from 230 at 6 knots

Barometer 1012.0 mb
Air temperature 29.5 ° C
Visibility: greater than 10.8 NM
Water temperature 29.0 ° C

Date/timePositionNaut miles runAvg speedWind from/ knotsBaromVisibWave heightAir tempDewpointWater temp
2015-Mar-29 06:00S 07°06' E 082°30'39416.4 230 / 61012.010.8 29.5 29.0
2015-Mar-28 06:00S 02°18' E 087°00'7218.1 270 / 81012.210.8 29.0 29.0
2015-Mar-28 02:00S 01°24' E 087°48'   230 / 91012.510.8 28.5 29.0
2015-Mar-25 06:21N 02°05' E 102°07'1418.3
2015-Mar-25 05:33N 01°56' E 102°18'1717.4
2015-Mar-25 04:33N 01°48' E 102°33'1717.2
2015-Mar-25 03:33N 01°41' E 102°49'6015.0
2015-Mar-24 23:33N 01°15' E 103°43'4 3.4
2015-Mar-24 22:28N 01°17' E 103°46'0 0.0
2015-Mar-24 21:33N 01°17' E 103°46'0 0.0
2015-Mar-24 20:33N 01°17' E 103°46'0 0.0
2015-Mar-24 19:32N 01°17' E 103°46'0 0.0
2015-Mar-24 18:32N 01°17' E 103°46'0 0.0
2015-Mar-24 17:31N 01°17' E 103°46'0 0.0
2015-Mar-24 16:31N 01°17' E 103°46'0 0.0
2015-Mar-24 15:31N 01°17' E 103°46'0 0.0
2015-Mar-24 14:33N 01°17' E 103°46'0 0.0
2015-Mar-24 13:33N 01°17' E 103°46'0 0.0
2015-Mar-24 12:32N 01°17' E 103°46'0 0.0
2015-Mar-24 11:29N 01°17' E 103°46'0 0.0
2015-Mar-24 10:28N 01°17' E 103°46'0 0.0
2015-Mar-24 09:28N 01°17' E 103°46'0 0.0
2015-Mar-24 08:31N 01°17' E 103°46'1 0.7
2015-Mar-24 07:33N 01°17' E 103°45'6 5.8
2015-Mar-24 06:33N 01°13' E 103°49'7 7.1
2015-Mar-24 05:33N 01°14' E 103°56'1110.7
2015-Mar-24 04:33N 01°16' E 104°06'1312.8
2015-Mar-24 03:32N 01°18' E 104°19'  
2015-Mar-21 02:29N 22°05' E 114°21'1313.5
2015-Mar-21 01:33N 22°12' E 114°10'6 6.6
2015-Mar-21 00:33N 22°17' E 114°06'3 3.0
2015-Mar-20 23:33N 22°20' E 114°08'0 0.0
2015-Mar-20 22:31N 22°20' E 114°08'0 0.0
2015-Mar-20 21:33N 22°20' E 114°08'0 0.0
2015-Mar-20 20:33N 22°20' E 114°08'0 0.0
2015-Mar-20 19:32N 22°20' E 114°08'0 0.0
2015-Mar-20 18:32N 22°20' E 114°08'0 0.0
2015-Mar-20 17:28N 22°20' E 114°08'0 0.0
2015-Mar-20 16:28N 22°20' E 114°08'0 0.0
2015-Mar-20 15:31N 22°20' E 114°08'0 0.0
2015-Mar-20 14:33N 22°20' E 114°08'0 0.0
2015-Mar-20 13:30N 22°20' E 114°08'0 0.0
2015-Mar-20 12:20N 22°20' E 114°08'0 0.0
2015-Mar-20 11:29N 22°20' E 114°08'0 0.0
2015-Mar-20 10:04N 22°20' E 114°08'0 0.0
2015-Mar-20 09:19N 22°20' E 114°08'0 0.0
2015-Mar-20 08:27N 22°20' E 114°08'0 0.0
2015-Mar-20 07:33N 22°20' E 114°08'3 2.6
2015-Mar-20 06:33N 22°18' E 114°06'10 9.4
2015-Mar-20 05:31N 22°10' E 114°13'1211.1
2015-Mar-20 04:29N 22°12' E 114°25'  

Dump ship's entire track history